createdAt,value
2019-05-10T00:00:16.271Z,9.99
2019-05-10T00:03:03.281Z,9.97
2019-05-10T00:05:50.771Z,10.00
2019-05-10T00:08:37.955Z,9.98
2019-05-10T00:11:32.593Z,10.02
2019-05-10T00:14:11.302Z,10.08
2019-05-10T00:16:40.650Z,10.09
2019-05-10T00:19:10.116Z,10.08
2019-05-10T00:21:39.448Z,10.14
2019-05-10T00:24:08.775Z,10.07
2019-05-10T00:26:38.222Z,10.06
2019-05-10T00:29:07.603Z,10.09
2019-05-10T00:31:37.087Z,10.13
2019-05-10T00:34:06.559Z,10.14
2019-05-10T00:36:35.902Z,10.15
2019-05-10T00:39:06.972Z,10.16
2019-05-10T00:41:36.329Z,10.16
2019-05-10T00:44:05.684Z,10.16
2019-05-10T00:46:35.000Z,10.19
2019-05-10T00:49:04.428Z,10.15
2019-05-10T00:51:33.748Z,10.13
2019-05-10T00:54:03.075Z,10.23
2019-05-10T00:56:32.415Z,10.19
2019-05-10T00:59:01.744Z,10.21
2019-05-10T01:01:31.108Z,10.16
2019-05-10T01:04:00.449Z,10.11
2019-05-10T01:06:29.781Z,10.11
2019-05-10T01:08:59.127Z,10.12
2019-05-10T01:11:28.554Z,10.12
2019-05-10T01:13:57.873Z,10.07
2019-05-10T01:16:27.263Z,10.03
2019-05-10T01:18:56.613Z,10.02
2019-05-10T01:21:25.941Z,10.03
2019-05-10T01:23:55.276Z,10.02
2019-05-10T01:26:24.623Z,10.04
2019-05-10T01:28:54.032Z,9.97
2019-05-10T01:31:23.423Z,9.87
2019-05-10T01:33:52.776Z,9.79
2019-05-10T01:36:24.197Z,9.80
2019-05-10T01:38:53.553Z,9.80
2019-05-10T01:41:22.909Z,9.79
2019-05-10T01:43:52.259Z,9.45
2019-05-10T01:46:21.600Z,9.74
2019-05-10T01:48:50.980Z,9.75
2019-05-10T01:51:20.245Z,9.73
2019-05-10T01:53:49.570Z,9.77
2019-05-10T01:56:18.998Z,9.77
2019-05-10T01:58:48.343Z,9.77
2019-05-10T02:01:17.681Z,9.80
2019-05-10T02:03:47.020Z,9.80
2019-05-10T02:06:16.365Z,9.79
2019-05-10T02:08:45.708Z,9.80
2019-05-10T02:11:15.069Z,9.75
2019-05-10T02:13:44.415Z,9.78
2019-05-10T02:16:13.747Z,9.77
2019-05-10T02:18:43.110Z,9.78
2019-05-10T02:21:12.453Z,9.77
2019-05-10T02:23:41.810Z,9.73
2019-05-10T02:26:11.170Z,9.72
2019-05-10T02:28:40.501Z,9.73
2019-05-10T02:31:09.894Z,9.77
2019-05-10T02:33:39.228Z,9.75
2019-05-10T02:36:08.592Z,9.79
2019-05-10T02:38:37.935Z,9.79
2019-05-10T02:41:07.512Z,9.82
2019-05-10T02:43:36.890Z,9.79
2019-05-10T02:46:06.208Z,9.80
2019-05-10T02:48:35.562Z,9.84
2019-05-10T02:51:04.892Z,9.80
2019-05-10T02:53:34.413Z,9.79
2019-05-10T02:56:04.467Z,9.81
2019-05-10T02:58:34.134Z,9.46
2019-05-10T03:01:05.539Z,9.75
2019-05-10T03:03:36.262Z,9.73
2019-05-10T03:06:05.706Z,9.77
2019-05-10T03:08:49.193Z,9.75
2019-05-10T03:11:18.776Z,9.70
2019-05-10T03:13:51.083Z,9.70
2019-05-10T03:16:22.003Z,9.68
2019-05-10T03:18:52.795Z,9.68
2019-05-10T03:21:24.570Z,9.62
2019-05-10T03:23:53.943Z,9.58
2019-05-10T03:26:23.266Z,9.51
2019-05-10T03:28:52.622Z,9.43
2019-05-10T03:31:21.965Z,9.35
2019-05-10T03:33:56.505Z,9.38
2019-05-10T03:36:22.385Z,9.42
2019-05-10T03:38:51.790Z,9.48
2019-05-10T03:41:21.389Z,9.50
2019-05-10T03:43:50.748Z,9.50
2019-05-10T03:46:20.057Z,9.48
2019-05-10T03:48:49.456Z,9.48
2019-05-10T03:51:18.818Z,9.45
2019-05-10T03:53:48.145Z,9.50
2019-05-10T03:56:17.472Z,9.57
2019-05-10T03:58:46.815Z,9.64
2019-05-10T04:01:16.131Z,9.73
2019-05-10T04:03:45.461Z,9.85
2019-05-10T04:06:14.835Z,9.92
2019-05-10T04:08:44.142Z,9.99
2019-05-10T04:11:13.498Z,10.09
2019-05-10T04:13:42.831Z,10.24
2019-05-10T04:16:12.161Z,10.44
2019-05-10T04:18:41.515Z,10.52
2019-05-10T04:21:10.858Z,10.57
2019-05-10T04:23:40.212Z,10.73
2019-05-10T04:26:09.665Z,10.78
2019-05-10T04:28:39.038Z,10.77
2019-05-10T04:31:08.344Z,10.86
2019-05-10T04:33:37.671Z,10.98
2019-05-10T04:36:12.051Z,11.02
2019-05-10T04:38:38.122Z,11.13
2019-05-10T04:41:07.466Z,11.07
2019-05-10T04:43:36.809Z,10.76
2019-05-10T04:46:06.163Z,10.67
2019-05-10T04:48:35.490Z,10.57
2019-05-10T04:51:04.839Z,10.56
2019-05-10T04:53:34.225Z,10.51
2019-05-10T04:56:03.564Z,10.36
2019-05-10T04:58:33.247Z,10.13
2019-05-10T05:01:02.634Z,10.04
2019-05-10T05:03:31.999Z,9.87
2019-05-10T05:06:01.358Z,9.88
2019-05-10T05:08:30.675Z,9.93
2019-05-10T05:11:00.039Z,9.95
2019-05-10T05:13:29.379Z,10.00
2019-05-10T05:15:58.712Z,10.03
2019-05-10T05:18:28.080Z,10.09
2019-05-10T05:20:57.520Z,10.07
2019-05-10T05:23:26.981Z,10.05
2019-05-10T05:25:56.370Z,9.97
2019-05-10T05:28:25.728Z,10.04
2019-05-10T05:30:55.056Z,10.14
2019-05-10T05:33:24.390Z,10.14
2019-05-10T05:35:53.843Z,10.12
2019-05-10T05:38:23.200Z,10.04
2019-05-10T05:40:52.537Z,10.14
2019-05-10T05:43:21.931Z,11.58
2019-05-10T05:45:51.338Z,11.84
2019-05-10T05:48:21.496Z,11.40
2019-05-10T05:50:51.805Z,11.07
2019-05-10T05:53:22.514Z,11.08
2019-05-10T05:55:52.137Z,11.84
2019-05-10T05:58:26.611Z,11.72
2019-05-10T06:00:52.627Z,11.29
2019-05-10T06:03:27.695Z,11.10
2019-05-10T06:05:53.050Z,11.17
2019-05-10T06:08:24.625Z,11.02
2019-05-10T06:10:57.587Z,10.91
2019-05-10T06:13:30.138Z,10.75
2019-05-10T06:15:59.452Z,10.81
2019-05-10T06:18:26.717Z,10.65
2019-05-10T06:20:56.068Z,10.70
2019-05-10T06:23:29.335Z,10.74
2019-05-10T06:25:56.679Z,10.82
2019-05-10T06:28:32.694Z,10.85
2019-05-10T06:30:57.092Z,10.82
2019-05-10T06:33:26.457Z,10.73
2019-05-10T06:35:55.973Z,10.65
2019-05-10T06:38:25.322Z,10.60
2019-05-10T06:40:55.581Z,10.67
2019-05-10T06:43:24.941Z,10.66
2019-05-10T06:45:54.441Z,10.70
2019-05-10T06:48:27.596Z,10.88
2019-05-10T06:50:54.872Z,10.91
2019-05-10T06:53:24.400Z,11.13
2019-05-10T06:55:53.776Z,11.18
2019-05-10T06:58:23.105Z,11.11
2019-05-10T07:00:52.896Z,11.10
2019-05-10T07:03:22.323Z,10.92
2019-05-10T07:05:51.757Z,10.82
2019-05-10T07:08:21.113Z,10.69
2019-05-10T07:10:50.496Z,10.54
2019-05-10T07:13:19.799Z,10.55
2019-05-10T07:15:49.176Z,10.71
2019-05-10T07:18:22.819Z,10.92
2019-05-10T07:20:49.653Z,11.28
2019-05-10T07:23:18.951Z,11.51
2019-05-10T07:25:48.389Z,12.35
2019-05-10T07:28:17.872Z,12.20
2019-05-10T07:30:47.299Z,13.85
2019-05-10T07:33:16.653Z,14.60
2019-05-10T07:35:46.011Z,14.80
2019-05-10T07:38:15.652Z,15.25
2019-05-10T07:40:45.502Z,14.22
2019-05-10T07:43:24.711Z,13.13
2019-05-10T07:45:46.091Z,12.62
2019-05-10T07:48:15.500Z,12.69
2019-05-10T07:50:49.751Z,13.05
2019-05-10T07:53:22.016Z,12.51
2019-05-10T07:55:47.175Z,12.22
2019-05-10T07:58:16.569Z,12.03
2019-05-10T08:00:46.792Z,12.27
2019-05-10T08:03:21.305Z,12.27
2019-05-10T08:05:55.025Z,12.06
2019-05-10T08:08:19.326Z,11.69
2019-05-10T08:10:48.952Z,11.74
2019-05-10T08:13:21.269Z,11.67
2019-05-10T08:15:49.347Z,11.85
2019-05-10T08:18:21.192Z,11.94
2019-05-10T08:20:56.633Z,12.31
2019-05-10T08:23:23.792Z,12.26
2019-05-10T08:25:53.437Z,12.52
2019-05-10T08:28:27.572Z,12.31
2019-05-10T08:30:58.764Z,12.75
2019-05-10T08:33:25.215Z,13.39
2019-05-10T08:36:00.787Z,13.50
2019-05-10T08:38:25.818Z,13.10
2019-05-10T08:40:55.231Z,12.63
2019-05-10T08:43:24.868Z,12.86
2019-05-10T08:45:57.764Z,13.84
2019-05-10T08:48:27.642Z,14.67
2019-05-10T08:50:57.862Z,14.43
2019-05-10T08:53:27.830Z,14.36
2019-05-10T08:55:58.954Z,14.13
2019-05-10T08:58:42.189Z,14.34
2019-05-10T09:01:23.903Z,14.67
2019-05-10T09:03:47.084Z,15.19
2019-05-10T09:06:16.624Z,16.29
2019-05-10T09:08:45.267Z,15.40
2019-05-10T09:11:16.430Z,16.32
2019-05-10T09:13:46.505Z,17.33
2019-05-10T09:16:15.873Z,18.08
2019-05-10T09:18:50.227Z,17.55
2019-05-10T09:21:16.927Z,16.73
2019-05-10T09:23:52.766Z,15.90
2019-05-10T09:26:17.390Z,15.48
2019-05-10T09:28:47.590Z,15.54
2019-05-10T09:31:22.069Z,15.78
2019-05-10T09:33:51.501Z,15.78
2019-05-10T09:36:25.105Z,15.35
2019-05-10T09:38:52.710Z,16.69
2019-05-10T09:41:22.720Z,16.92
2019-05-10T09:43:53.826Z,16.40
2019-05-10T09:46:23.221Z,15.95
2019-05-10T09:48:54.551Z,15.90
2019-05-10T09:51:30.074Z,15.85
2019-05-10T09:53:57.919Z,16.08
2019-05-10T09:56:32.847Z,17.37
2019-05-10T09:58:59.395Z,17.06
2019-05-10T10:01:28.760Z,17.39
2019-05-10T10:04:01.897Z,17.65
2019-05-10T10:06:29.763Z,17.16
2019-05-10T10:09:00.976Z,17.40
2019-05-10T10:11:30.515Z,16.63
2019-05-10T10:14:02.209Z,17.36
2019-05-10T10:16:30.875Z,17.89
2019-05-10T10:19:00.233Z,18.67
2019-05-10T10:21:35.151Z,19.25
2019-05-10T10:24:00.727Z,19.31
2019-05-10T10:26:30.058Z,18.01
2019-05-10T10:29:00.087Z,17.66
2019-05-10T10:31:33.428Z,18.60
2019-05-10T10:34:03.141Z,19.18
2019-05-10T10:36:31.918Z,18.48
2019-05-10T10:39:01.284Z,18.02
2019-05-10T10:41:31.869Z,17.24
2019-05-10T10:44:01.472Z,16.55
2019-05-10T10:46:34.220Z,16.19
2019-05-10T10:49:01.939Z,16.08
2019-05-10T10:51:32.129Z,15.96
2019-05-10T10:54:02.429Z,16.48
2019-05-10T10:56:31.793Z,17.09
2019-05-10T10:59:01.185Z,16.53
2019-05-10T11:01:46.159Z,16.02
2019-05-10T11:04:07.949Z,15.43
2019-05-10T11:06:33.232Z,15.21
2019-05-10T11:09:02.564Z,15.11
2019-05-10T11:11:38.818Z,15.11
2019-05-10T11:14:07.089Z,15.14
2019-05-10T11:16:34.057Z,15.33
2019-05-10T11:19:09.175Z,15.58
2019-05-10T11:21:34.453Z,14.79
2019-05-10T11:24:03.818Z,14.75
2019-05-10T11:26:36.725Z,14.74
2019-05-10T11:29:04.242Z,14.79
2019-05-10T11:31:33.732Z,15.45
2019-05-10T11:34:05.968Z,17.36
2019-05-10T11:36:34.164Z,17.63
2019-05-10T11:39:06.060Z,17.89
2019-05-10T11:41:35.433Z,18.59
2019-05-10T11:44:08.824Z,19.71
2019-05-10T11:46:35.805Z,19.70
2019-05-10T11:49:05.143Z,19.76
2019-05-10T11:51:34.478Z,19.81
2019-05-10T11:54:03.812Z,19.83
2019-05-10T11:56:33.129Z,18.12
2019-05-10T11:59:02.810Z,17.56
2019-05-10T12:01:32.179Z,18.25
2019-05-10T12:06:32.567Z,16.79
2019-05-10T12:11:34.021Z,16.43
2019-05-10T12:14:04.220Z,16.89
2019-05-10T12:16:33.794Z,17.86
2019-05-10T12:19:14.944Z,18.76
2019-05-10T12:21:34.264Z,18.96
2019-05-10T12:24:24.362Z,19.10
2019-05-10T12:26:20.398Z,16.53
2019-05-10T12:26:30.550Z,17.48
2019-05-10T12:29:12.010Z,18.44
2019-05-10T12:31:36.829Z,18.43
2019-05-10T12:34:14.236Z,18.45
2019-05-10T12:36:37.255Z,18.48
2019-05-10T12:39:07.857Z,18.23
2019-05-10T12:41:39.822Z,18.25
2019-05-10T12:44:08.279Z,18.18
2019-05-10T12:46:41.382Z,17.79
2019-05-10T12:49:08.689Z,17.27
2019-05-10T12:51:38.020Z,16.83
2019-05-10T12:54:07.360Z,16.89
2019-05-10T12:56:43.909Z,16.83
2019-05-10T12:59:07.764Z,17.42
2019-05-10T13:01:37.101Z,17.99
2019-05-10T13:04:13.769Z,18.11
2019-05-10T13:06:37.486Z,17.82
2019-05-10T13:09:07.739Z,17.80
2019-05-10T13:11:37.186Z,17.38
2019-05-10T13:14:07.691Z,17.26
2019-05-10T13:16:37.656Z,17.24
2019-05-10T13:19:06.983Z,16.80
2019-05-10T13:21:36.319Z,16.32
2019-05-10T13:24:05.659Z,16.04
2019-05-10T13:26:35.106Z,16.03
2019-05-10T13:29:08.114Z,16.34
2019-05-10T13:31:42.167Z,16.91
2019-05-10T13:34:06.979Z,17.96
2019-05-10T13:36:37.167Z,19.18
2019-05-10T13:39:07.738Z,18.59
2019-05-10T13:41:37.093Z,17.11
2019-05-10T13:44:06.611Z,16.83
2019-05-10T13:46:36.001Z,16.92
2019-05-10T13:49:05.335Z,16.99
2019-05-10T13:51:34.695Z,16.83
2019-05-10T13:54:05.324Z,16.74
2019-05-10T13:56:34.953Z,16.42
2019-05-10T13:59:14.959Z,16.27
2019-05-10T14:01:35.467Z,16.21
2019-05-10T14:04:04.922Z,16.14
2019-05-10T14:06:34.418Z,16.15
2019-05-10T14:09:05.849Z,16.13
2019-05-10T14:11:40.549Z,16.18
2019-05-10T14:14:06.307Z,16.03
2019-05-10T14:16:35.753Z,16.09
2019-05-10T14:19:05.125Z,16.02
2019-05-10T14:21:34.455Z,16.03
2019-05-10T14:24:09.291Z,16.21
2019-05-10T14:26:34.947Z,16.23
2019-05-10T14:29:04.327Z,16.22
2019-05-10T14:31:33.687Z,16.09
2019-05-10T14:34:18.508Z,16.13
2019-05-10T14:36:40.682Z,16.15
2019-05-10T14:39:07.292Z,16.19
2019-05-10T14:41:39.676Z,16.25
2019-05-10T14:44:07.905Z,16.17
2019-05-10T14:46:37.612Z,16.02
2019-05-10T14:49:09.947Z,15.97
2019-05-10T14:51:56.385Z,16.12
2019-05-10T14:54:09.190Z,16.16
2019-05-10T14:56:38.530Z,16.28
2019-05-10T14:59:07.854Z,16.30
2019-05-10T15:01:43.037Z,16.23
2019-05-10T15:04:08.365Z,16.13
2019-05-10T15:06:39.050Z,16.11
2019-05-10T15:09:20.257Z,16.22
2019-05-10T15:11:40.419Z,16.37
2019-05-10T15:14:09.797Z,16.38
2019-05-10T15:16:39.124Z,16.45
2019-05-10T15:19:08.535Z,16.58
2019-05-10T15:21:37.871Z,16.65
2019-05-10T15:24:07.245Z,16.67
2019-05-10T15:26:37.623Z,16.64
2019-05-10T15:29:07.700Z,16.51
2019-05-10T15:31:45.983Z,16.41
2019-05-10T15:34:15.332Z,16.39
2019-05-10T15:36:44.660Z,16.29
2019-05-10T15:39:14.070Z,16.26
2019-05-10T15:41:43.435Z,16.30
2019-05-10T15:44:12.821Z,16.28
2019-05-10T15:46:42.607Z,16.28
2019-05-10T15:49:13.590Z,16.26
2019-05-10T15:51:43.151Z,16.28
2019-05-10T15:54:12.538Z,16.33
2019-05-10T15:56:43.990Z,16.43
2019-05-10T15:59:18.860Z,16.47
2019-05-10T16:01:45.646Z,16.40
2019-05-10T16:04:15.316Z,16.40
2019-05-10T16:06:44.647Z,16.42
2019-05-10T16:09:17.432Z,16.35
2019-05-10T16:12:01.895Z,16.22
2019-05-10T16:14:27.366Z,16.09
2019-05-10T16:16:56.881Z,16.04
2019-05-10T16:19:26.628Z,15.95
2019-05-10T16:21:58.123Z,15.82
2019-05-10T16:24:28.027Z,15.73
2019-05-10T16:26:59.973Z,15.66
2019-05-10T16:29:33.701Z,15.63
2019-05-10T16:31:59.842Z,15.59
2019-05-10T16:34:32.375Z,15.54
2019-05-10T16:37:00.323Z,15.49
2019-05-10T16:39:32.163Z,15.45
2019-05-10T16:42:01.646Z,15.41
2019-05-10T16:44:34.684Z,15.37
2019-05-10T16:47:04.085Z,15.34
2019-05-10T16:49:33.469Z,15.31
2019-05-10T16:52:02.824Z,15.28
2019-05-10T16:54:32.183Z,15.30
2019-05-10T16:57:01.713Z,15.29
2019-05-10T16:59:31.468Z,15.29
2019-05-10T17:02:04.562Z,15.29
2019-05-10T17:04:37.312Z,15.29
2019-05-10T17:07:03.068Z,15.28
2019-05-10T17:09:32.484Z,15.24
2019-05-10T17:12:01.828Z,15.20
2019-05-10T17:14:31.193Z,15.19
2019-05-10T17:17:00.531Z,15.16
2019-05-10T17:19:34.034Z,15.15
2019-05-10T17:22:01.066Z,15.12
2019-05-10T17:24:30.487Z,15.09
2019-05-10T17:26:59.864Z,15.05
2019-05-10T17:29:29.246Z,15.03
2019-05-10T17:31:58.574Z,14.99
2019-05-10T17:34:29.687Z,14.95
2019-05-10T17:36:59.863Z,14.90
2019-05-10T17:39:32.139Z,14.86
2019-05-10T17:42:03.229Z,14.84
2019-05-10T17:44:31.686Z,14.80
2019-05-10T17:47:01.005Z,14.79
2019-05-10T17:49:30.402Z,14.78
2019-05-10T17:51:59.945Z,14.73
2019-05-10T17:54:33.654Z,14.72
2019-05-10T17:57:00.428Z,14.74
2019-05-10T17:59:30.045Z,14.75
2019-05-10T18:01:59.383Z,14.78
2019-05-10T18:04:28.738Z,14.78
2019-05-10T18:06:58.118Z,14.78
2019-05-10T18:09:27.553Z,14.78
2019-05-10T18:11:56.846Z,14.75
2019-05-10T18:14:29.368Z,14.75
2019-05-10T18:16:57.289Z,14.73
2019-05-10T18:19:26.669Z,14.66
2019-05-10T18:22:00.340Z,14.61
2019-05-10T18:24:30.299Z,14.56
2019-05-10T18:26:58.211Z,14.54
2019-05-10T18:29:27.598Z,14.52
2019-05-10T18:31:58.326Z,14.52
2019-05-10T18:34:33.118Z,14.52
2019-05-10T18:36:59.040Z,14.52
2019-05-10T18:39:28.408Z,14.53
2019-05-10T18:41:57.799Z,14.56
2019-05-10T18:44:27.505Z,14.57
2019-05-10T18:46:56.821Z,14.56
2019-05-10T18:49:26.229Z,14.55
2019-05-10T18:52:03.557Z,14.56
2019-05-10T18:54:26.804Z,14.55
2019-05-10T18:56:56.131Z,14.55
2019-05-10T18:59:25.503Z,14.55
2019-05-10T19:01:54.858Z,14.54
2019-05-10T19:04:24.671Z,14.52
2019-05-10T19:07:09.307Z,14.55
2019-05-10T19:09:25.221Z,14.47
2019-05-10T19:11:54.767Z,14.44
2019-05-10T19:14:29.592Z,14.40
2019-05-10T19:16:56.725Z,14.34
2019-05-10T19:19:26.209Z,14.30
2019-05-10T19:21:55.586Z,14.28
2019-05-10T19:24:30.319Z,14.24
2019-05-10T19:27:01.535Z,14.22
2019-05-10T19:29:27.732Z,14.20
2019-05-10T19:31:57.153Z,14.18
2019-05-10T19:34:26.566Z,14.12
2019-05-10T19:36:55.967Z,14.07
2019-05-10T19:39:25.315Z,14.05
2019-05-10T19:42:03.194Z,14.07
2019-05-10T19:44:25.742Z,14.07
2019-05-10T19:46:55.055Z,14.11
2019-05-10T19:49:24.425Z,14.10
2019-05-10T19:51:53.769Z,14.07
2019-05-10T19:54:23.091Z,14.04
2019-05-10T19:56:55.444Z,14.02
2019-05-10T19:59:25.078Z,12.85
2019-05-10T20:01:54.430Z,14.05
2019-05-10T20:04:23.764Z,14.02
2019-05-10T20:06:54.236Z,13.94
2019-05-10T20:09:23.786Z,13.86
2019-05-10T20:11:53.117Z,13.80
2019-05-10T20:14:22.461Z,13.77
2019-05-10T20:16:53.376Z,13.75
2019-05-10T20:19:22.885Z,13.80
2019-05-10T20:21:52.203Z,13.80
2019-05-10T20:24:21.604Z,13.75
2019-05-10T20:26:51.260Z,13.76
2019-05-10T20:29:20.649Z,13.72
2019-05-10T20:31:50.000Z,13.67
2019-05-10T20:34:19.327Z,13.63
2019-05-10T20:36:48.660Z,13.56
2019-05-10T20:39:17.990Z,13.54
2019-05-10T20:41:47.334Z,13.47
2019-05-10T20:44:18.173Z,13.34
2019-05-10T20:46:47.750Z,13.29
2019-05-10T20:49:17.069Z,13.25
2019-05-10T20:51:46.402Z,13.21
2019-05-10T20:54:15.781Z,13.14
2019-05-10T20:56:45.187Z,12.99
2019-05-10T20:59:14.540Z,12.87
2019-05-10T21:01:43.887Z,12.81
2019-05-10T21:04:13.212Z,12.69
2019-05-10T21:06:42.551Z,12.64
2019-05-10T21:09:11.879Z,12.58
2019-05-10T21:11:41.193Z,12.49
2019-05-10T21:14:10.602Z,12.40
2019-05-10T21:16:39.955Z,12.26
2019-05-10T21:19:09.375Z,12.13
2019-05-10T21:21:38.693Z,12.00
2019-05-10T21:24:08.023Z,11.86
2019-05-10T21:26:37.412Z,11.77
2019-05-10T21:29:06.774Z,11.68
2019-05-10T21:31:36.519Z,11.54
2019-05-10T21:34:09.658Z,11.42
2019-05-10T21:36:36.988Z,11.31
2019-05-10T21:39:07.949Z,11.24
2019-05-10T21:41:37.278Z,11.19
2019-05-10T21:44:06.636Z,11.14
2019-05-10T21:46:36.229Z,11.19
2019-05-10T21:49:05.583Z,11.13
2019-05-10T21:51:34.909Z,11.09
2019-05-10T21:54:04.277Z,11.06
2019-05-10T21:56:36.253Z,11.03
2019-05-10T21:59:04.646Z,11.00
2019-05-10T22:01:34.010Z,10.95
2019-05-10T22:04:03.336Z,10.92
2019-05-10T22:06:32.677Z,10.90
2019-05-10T22:09:02.297Z,10.85
2019-05-10T22:11:31.628Z,10.81
2019-05-10T22:14:00.958Z,10.81
2019-05-10T22:16:30.385Z,10.77
2019-05-10T22:19:03.174Z,10.71
2019-05-10T22:21:32.506Z,10.68
2019-05-10T22:24:01.945Z,10.68
2019-05-10T22:26:31.273Z,10.69
2019-05-10T22:29:00.613Z,10.71
2019-05-10T22:31:29.982Z,10.73
2019-05-10T22:33:59.331Z,10.73
2019-05-10T22:36:28.671Z,10.75
2019-05-10T22:39:06.979Z,10.75
2019-05-10T22:41:29.147Z,10.76
2019-05-10T22:43:58.533Z,10.75
2019-05-10T22:46:27.866Z,10.72
2019-05-10T22:48:57.234Z,10.69
2019-05-10T22:51:26.556Z,10.62
2019-05-10T22:53:59.909Z,10.59
2019-05-10T22:56:29.263Z,10.61
2019-05-10T22:58:58.610Z,10.57
2019-05-10T23:01:28.004Z,10.54
2019-05-10T23:03:57.499Z,10.49
2019-05-10T23:06:26.935Z,10.46
2019-05-10T23:08:56.265Z,10.45
2019-05-10T23:11:25.688Z,10.49
2019-05-10T23:13:55.124Z,10.48
2019-05-10T23:16:24.500Z,10.46
2019-05-10T23:18:53.877Z,10.44
2019-05-10T23:21:23.249Z,10.44
2019-05-10T23:23:52.597Z,10.40
2019-05-10T23:26:22.021Z,10.34
2019-05-10T23:28:51.330Z,10.32
2019-05-10T23:31:20.740Z,10.28
2019-05-10T23:33:50.285Z,10.30
2019-05-10T23:36:19.852Z,10.27
2019-05-10T23:38:52.238Z,10.24
2019-05-10T23:41:20.827Z,10.20
2019-05-10T23:43:50.378Z,10.17
2019-05-10T23:46:19.958Z,10.11
2019-05-10T23:48:49.785Z,10.17
2019-05-10T23:51:19.354Z,10.14
2019-05-10T23:53:48.929Z,10.13
2019-05-10T23:56:18.499Z,10.08
2019-05-10T23:58:48.107Z,10.00
